createdAt,value
2023-04-15T00:01:01.302Z,65.88
2023-04-15T00:03:28.717Z,65.84
2023-04-15T00:05:55.374Z,66.17
2023-04-15T00:08:21.932Z,66.22
2023-04-15T00:10:50.987Z,65.98
2023-04-15T00:13:17.534Z,65.76
2023-04-15T00:15:44.726Z,66.28
2023-04-15T00:18:11.270Z,66.16
2023-04-15T00:20:37.854Z,66.55
2023-04-15T00:23:04.545Z,66.66
2023-04-15T00:25:31.501Z,66.94
2023-04-15T00:27:58.187Z,66.99
2023-04-15T00:30:25.627Z,66.86
2023-04-15T00:32:52.658Z,66.91
2023-04-15T00:35:19.475Z,67.01
2023-04-15T00:37:46.410Z,67.24
2023-04-15T00:40:13.739Z,67.34
2023-04-15T00:42:40.643Z,67.77
2023-04-15T00:45:08.725Z,67.49
2023-04-15T00:47:37.201Z,67.88
2023-04-15T00:50:03.962Z,67.53
2023-04-15T00:52:31.013Z,67.60
2023-04-15T00:54:57.604Z,67.48
2023-04-15T00:57:24.203Z,68.13
2023-04-15T00:59:52.617Z,68.27
2023-04-15T01:02:19.968Z,68.82
2023-04-15T01:04:47.082Z,69.07
2023-04-15T01:07:13.587Z,69.34
2023-04-15T01:09:40.734Z,69.78
2023-04-15T01:12:08.530Z,69.57
2023-04-15T01:14:35.189Z,69.76
2023-04-15T01:17:02.240Z,70.11
2023-04-15T01:19:28.872Z,70.46
2023-04-15T01:21:56.320Z,69.89
2023-04-15T01:24:23.996Z,70.41
2023-04-15T01:26:50.738Z,70.89
2023-04-15T01:29:18.057Z,71.07
2023-04-15T01:31:55.931Z,71.05
2023-04-15T01:34:23.283Z,71.48
2023-04-15T01:36:49.929Z,71.66
2023-04-15T01:39:16.436Z,71.50
2023-04-15T01:41:42.890Z,71.79
2023-04-15T01:44:09.483Z,71.49
2023-04-15T01:46:37.190Z,71.54
2023-04-15T01:49:06.620Z,72.16
2023-04-15T01:51:33.149Z,72.38
2023-04-15T01:54:00.136Z,72.33
2023-04-15T01:56:26.879Z,72.59
2023-04-15T01:58:53.640Z,72.32
2023-04-15T02:01:20.816Z,73.01
2023-04-15T02:03:48.484Z,72.90
2023-04-15T02:06:15.874Z,73.19
2023-04-15T02:08:42.433Z,72.62
2023-04-15T02:11:09.304Z,73.11
2023-04-15T02:13:36.372Z,72.94
2023-04-15T02:16:03.394Z,72.47
2023-04-15T02:18:29.858Z,73.04
2023-04-15T02:20:58.317Z,74.21
2023-04-15T02:23:24.746Z,73.72
2023-04-15T02:25:53.859Z,74.04
2023-04-15T02:28:21.641Z,74.49
2023-04-15T02:30:52.524Z,74.62
2023-04-15T02:33:19.372Z,74.52
2023-04-15T02:35:45.867Z,75.64
2023-04-15T02:38:12.491Z,75.98
2023-04-15T02:40:38.997Z,75.82
2023-04-15T02:43:07.013Z,76.21
2023-04-15T02:45:33.629Z,76.46
2023-04-15T02:48:03.556Z,76.03
2023-04-15T02:50:31.567Z,76.94
2023-04-15T02:52:58.000Z,76.62
2023-04-15T02:55:24.370Z,77.53
2023-04-15T02:57:50.972Z,77.05
2023-04-15T03:00:17.510Z,77.25
2023-04-15T03:02:46.764Z,77.72
2023-04-15T03:05:14.561Z,78.54
2023-04-15T03:07:41.020Z,78.26
2023-04-15T03:10:08.605Z,78.65
2023-04-15T03:12:35.004Z,78.60
2023-04-15T03:15:02.152Z,77.65
2023-04-15T03:17:28.679Z,78.13
2023-04-15T03:19:55.410Z,78.15
2023-04-15T03:22:22.620Z,78.12
2023-04-15T03:24:49.018Z,78.30
2023-04-15T03:27:15.444Z,78.87
2023-04-15T03:29:41.852Z,79.24
2023-04-15T03:32:08.392Z,78.75
2023-04-15T03:34:34.795Z,79.44
2023-04-15T03:37:01.408Z,79.56
2023-04-15T03:39:27.765Z,79.89
2023-04-15T03:41:54.166Z,79.89
2023-04-15T03:44:20.820Z,80.30
2023-04-15T03:46:47.368Z,81.06
2023-04-15T03:49:14.227Z,81.41
2023-04-15T03:51:40.702Z,81.60
2023-04-15T03:54:07.084Z,81.93
2023-04-15T03:56:33.445Z,81.98
2023-04-15T03:59:00.147Z,82.22
2023-04-15T04:01:26.830Z,82.33
2023-04-15T04:03:53.838Z,82.23
2023-04-15T04:06:20.579Z,82.95
2023-04-15T04:08:47.324Z,82.72
2023-04-15T04:11:13.794Z,83.19
2023-04-15T04:13:40.601Z,83.53
2023-04-15T04:16:07.151Z,83.95
2023-04-15T04:18:34.212Z,83.62
2023-04-15T04:21:01.203Z,83.60
2023-04-15T04:23:27.749Z,84.17
2023-04-15T04:25:54.366Z,84.41
2023-04-15T04:28:20.865Z,84.33
2023-04-15T04:30:47.311Z,84.51
2023-04-15T04:33:13.745Z,84.57
2023-04-15T04:35:40.319Z,84.70
2023-04-15T04:38:06.848Z,85.19
2023-04-15T04:40:33.331Z,85.23
2023-04-15T04:43:00.161Z,85.33
2023-04-15T04:45:27.185Z,85.14
2023-04-15T04:47:53.729Z,85.44
2023-04-15T04:50:20.428Z,85.92
2023-04-15T04:52:46.999Z,85.85
2023-04-15T04:55:13.558Z,86.04
2023-04-15T04:57:40.072Z,86.12
2023-04-15T05:00:08.982Z,86.47
2023-04-15T05:02:36.064Z,86.67
2023-04-15T05:05:02.674Z,86.96
2023-04-15T05:07:29.182Z,86.96
2023-04-15T05:09:55.890Z,86.73
2023-04-15T05:12:22.661Z,87.02
2023-04-15T05:14:49.281Z,87.04
2023-04-15T05:17:15.827Z,87.08
2023-04-15T05:19:42.369Z,87.08
2023-04-15T05:22:09.022Z,87.31
2023-04-15T05:24:36.379Z,86.49
2023-04-15T05:27:02.961Z,86.40
2023-04-15T05:29:29.565Z,86.74
2023-04-15T05:31:56.666Z,86.06
2023-04-15T05:34:23.226Z,86.28
2023-04-15T05:36:49.812Z,85.93
2023-04-15T05:39:16.546Z,83.04
2023-04-15T05:41:42.962Z,81.17
2023-04-15T05:44:09.415Z,80.71
2023-04-15T05:46:36.382Z,79.99
2023-04-15T05:49:03.274Z,80.02
2023-04-15T05:51:29.991Z,81.01
2023-04-15T05:53:56.710Z,80.78
2023-04-15T05:56:23.197Z,81.49
2023-04-15T05:58:50.590Z,82.52
2023-04-15T06:01:18.473Z,83.60
2023-04-15T06:03:45.018Z,83.38
2023-04-15T06:06:11.797Z,83.91
2023-04-15T06:08:38.520Z,83.98
2023-04-15T06:11:05.870Z,84.66
2023-04-15T06:13:32.372Z,84.90
2023-04-15T06:16:00.030Z,84.59
2023-04-15T06:18:26.644Z,84.50
2023-04-15T06:20:53.217Z,84.46
2023-04-15T06:23:19.756Z,83.45
2023-04-15T06:25:46.643Z,82.33
2023-04-15T06:28:13.235Z,80.59
2023-04-15T06:30:40.015Z,80.68
2023-04-15T06:33:07.390Z,79.07
2023-04-15T06:35:33.925Z,78.22
2023-04-15T06:38:00.367Z,77.86
2023-04-15T06:40:26.918Z,76.89
2023-04-15T06:42:53.406Z,76.54
2023-04-15T06:45:20.144Z,76.15
2023-04-15T06:47:46.930Z,78.00
2023-04-15T06:50:13.493Z,79.12
2023-04-15T06:52:40.865Z,80.72
2023-04-15T06:55:07.968Z,81.63
2023-04-15T06:57:35.193Z,80.83
2023-04-15T07:00:02.218Z,80.89
2023-04-15T07:02:28.775Z,82.49
2023-04-15T07:04:55.542Z,81.52
2023-04-15T07:07:22.259Z,80.93
2023-04-15T07:09:48.728Z,80.61
2023-04-15T07:12:15.526Z,80.56
2023-04-15T07:14:42.168Z,80.69
2023-04-15T07:17:09.606Z,80.76
2023-04-15T07:19:37.746Z,81.41
2023-04-15T07:22:04.198Z,80.35
2023-04-15T07:24:31.165Z,80.35
2023-04-15T07:27:00.333Z,80.04
2023-04-15T07:29:27.473Z,79.97
2023-04-15T07:31:53.898Z,79.25
2023-04-15T07:34:20.908Z,79.33
2023-04-15T07:36:50.698Z,79.71
2023-04-15T07:39:18.732Z,79.27
2023-04-15T07:41:45.483Z,78.07
2023-04-15T07:44:12.137Z,78.20
2023-04-15T07:46:39.115Z,76.31
2023-04-15T07:49:05.733Z,74.95
2023-04-15T07:51:32.613Z,74.22
2023-04-15T07:53:59.265Z,73.43
2023-04-15T07:56:26.503Z,72.38
2023-04-15T07:58:53.312Z,72.41
2023-04-15T08:01:20.830Z,71.94
2023-04-15T08:03:48.584Z,72.30
2023-04-15T08:06:15.157Z,72.93
2023-04-15T08:08:41.639Z,71.82
2023-04-15T08:11:08.978Z,72.32
2023-04-15T08:13:35.549Z,71.62
2023-04-15T08:16:17.766Z,71.66
2023-04-15T08:18:44.607Z,70.47
2023-04-15T08:21:11.530Z,71.37
2023-04-15T08:23:38.559Z,70.73
2023-04-15T08:26:05.461Z,69.74
2023-04-15T08:28:32.089Z,68.77
2023-04-15T08:30:58.744Z,68.72
2023-04-15T08:33:25.660Z,67.96
2023-04-15T08:35:52.171Z,69.18
2023-04-15T08:38:19.482Z,68.58
2023-04-15T08:40:46.901Z,68.55
2023-04-15T08:43:21.302Z,67.89
2023-04-15T08:45:49.661Z,68.75
2023-04-15T08:48:17.186Z,67.90
2023-04-15T08:50:43.904Z,68.03
2023-04-15T08:53:11.808Z,68.25
2023-04-15T08:55:45.055Z,68.59
2023-04-15T08:58:13.531Z,68.45
2023-04-15T09:00:40.684Z,68.66
2023-04-15T09:03:08.927Z,69.13
2023-04-15T09:05:36.541Z,68.11
2023-04-15T09:08:04.134Z,67.92
2023-04-15T09:10:30.922Z,68.28
2023-04-15T09:12:57.889Z,67.73
2023-04-15T09:15:29.497Z,67.51
2023-04-15T09:17:56.990Z,67.78
2023-04-15T09:20:24.134Z,67.29
2023-04-15T09:22:51.954Z,66.65
2023-04-15T09:25:24.887Z,66.81
2023-04-15T09:27:53.427Z,67.10
2023-04-15T09:30:20.559Z,67.02
2023-04-15T09:32:55.208Z,67.16
2023-04-15T09:35:23.266Z,66.44
2023-04-15T09:37:50.461Z,66.57
2023-04-15T09:40:36.444Z,68.19
2023-04-15T09:43:05.247Z,67.03
2023-04-15T09:45:33.332Z,66.05
2023-04-15T09:48:14.943Z,66.81
2023-04-15T09:50:43.915Z,67.99
2023-04-15T09:53:12.415Z,67.04
2023-04-15T09:55:38.889Z,65.82
2023-04-15T09:58:33.416Z,65.50
2023-04-15T10:01:01.793Z,65.36
2023-04-15T10:03:31.633Z,64.37
2023-04-15T10:06:00.660Z,65.36
2023-04-15T10:08:28.938Z,64.95
2023-04-15T10:10:56.129Z,64.61
2023-04-15T10:13:28.660Z,64.85
2023-04-15T10:16:06.401Z,63.88
2023-04-15T10:18:36.186Z,62.47
2023-04-15T10:21:02.628Z,62.98
2023-04-15T10:23:29.344Z,62.85
2023-04-15T10:25:57.481Z,63.87
2023-04-15T10:28:24.846Z,64.16
2023-04-15T10:30:52.533Z,63.71
2023-04-15T10:33:24.434Z,63.26
2023-04-15T10:35:52.904Z,63.15
2023-04-15T10:38:34.421Z,63.77
2023-04-15T10:41:23.371Z,63.02
2023-04-15T10:43:51.597Z,63.65
2023-04-15T10:46:37.807Z,63.28
2023-04-15T10:49:07.705Z,64.24
2023-04-15T10:51:37.353Z,63.02
2023-04-15T10:54:10.413Z,61.64
2023-04-15T10:56:36.856Z,61.57
2023-04-15T10:59:05.271Z,61.71
2023-04-15T11:01:56.384Z,62.59
2023-04-15T11:04:52.389Z,62.42
2023-04-15T11:07:47.104Z,61.84
2023-04-15T11:10:13.667Z,60.62
2023-04-15T11:12:41.862Z,60.08
2023-04-15T11:15:31.162Z,60.95
2023-04-15T11:17:58.881Z,60.13
2023-04-15T11:20:25.944Z,59.68
2023-04-15T11:23:08.286Z,60.28
2023-04-15T11:25:41.762Z,60.02
2023-04-15T11:28:08.359Z,59.69
2023-04-15T11:30:37.571Z,58.62
2023-04-15T11:33:09.334Z,59.00
2023-04-15T11:35:36.377Z,59.74
2023-04-15T11:38:09.073Z,60.17
2023-04-15T11:40:36.207Z,60.08
2023-04-15T11:43:09.780Z,59.80
2023-04-15T11:45:37.911Z,60.93
2023-04-15T11:48:11.791Z,59.48
2023-04-15T11:50:41.078Z,58.65
2023-04-15T11:53:09.978Z,59.08
2023-04-15T11:55:46.218Z,59.69
2023-04-15T11:58:23.485Z,60.15
2023-04-15T12:00:54.967Z,58.92
2023-04-15T12:03:26.010Z,58.08
2023-04-15T12:06:24.422Z,59.56
2023-04-15T12:09:04.776Z,59.65
2023-04-15T12:11:48.293Z,60.25
2023-04-15T12:14:31.993Z,58.29
2023-04-15T12:17:01.408Z,59.65
2023-04-15T12:19:29.350Z,59.32
2023-04-15T12:22:01.335Z,58.38
2023-04-15T12:24:30.965Z,58.26
2023-04-15T12:27:01.937Z,58.55
2023-04-15T12:29:30.290Z,57.21
2023-04-15T12:32:13.946Z,58.67
2023-04-15T12:34:49.538Z,60.95
2023-04-15T12:37:16.429Z,61.29
2023-04-15T12:39:44.575Z,60.20
2023-04-15T12:42:11.634Z,60.44
2023-04-15T12:44:39.553Z,60.78
2023-04-15T12:47:08.018Z,60.74
2023-04-15T12:49:35.097Z,61.15
2023-04-15T12:52:02.659Z,60.84
2023-04-15T12:54:30.286Z,60.55
2023-04-15T12:56:57.593Z,59.95
2023-04-15T12:59:24.566Z,61.02
2023-04-15T13:01:52.626Z,60.91
2023-04-15T13:04:21.264Z,60.30
2023-04-15T13:06:48.982Z,59.86
2023-04-15T13:09:15.829Z,60.48
2023-04-15T13:11:42.813Z,61.20
2023-04-15T13:14:13.117Z,62.25
2023-04-15T13:16:40.890Z,62.35
2023-04-15T13:19:07.619Z,62.91
2023-04-15T13:21:35.998Z,63.77
2023-04-15T13:24:03.706Z,63.64
2023-04-15T13:26:31.276Z,64.25
2023-04-15T13:28:58.944Z,65.22
2023-04-15T13:31:25.553Z,64.40
2023-04-15T13:33:52.734Z,64.63
2023-04-15T13:36:19.515Z,65.54
2023-04-15T13:38:46.498Z,64.86
2023-04-15T13:41:14.024Z,65.50
2023-04-15T13:43:40.704Z,66.05
2023-04-15T13:46:07.356Z,65.28
2023-04-15T13:48:33.911Z,66.07
2023-04-15T13:51:00.405Z,66.37
2023-04-15T13:53:37.690Z,66.33
2023-04-15T13:56:09.333Z,66.07
2023-04-15T13:58:37.466Z,66.30
2023-04-15T14:01:06.180Z,65.91
2023-04-15T14:03:36.837Z,65.84
2023-04-15T14:06:04.375Z,65.28
2023-04-15T14:08:31.731Z,64.96
2023-04-15T14:10:58.434Z,65.35
2023-04-15T14:13:25.212Z,64.70
2023-04-15T14:15:51.746Z,65.51
2023-04-15T14:18:18.185Z,65.51
2023-04-15T14:20:44.725Z,65.60
2023-04-15T14:23:12.027Z,67.38
2023-04-15T14:25:39.435Z,69.36
2023-04-15T14:28:06.021Z,69.95
2023-04-15T14:30:32.633Z,70.82
2023-04-15T14:32:59.111Z,70.51
2023-04-15T14:35:26.789Z,70.26
2023-04-15T14:37:54.350Z,70.64
2023-04-15T14:40:20.879Z,69.85
2023-04-15T14:42:47.430Z,70.13
2023-04-15T14:45:13.953Z,69.77
2023-04-15T14:47:40.805Z,69.40
2023-04-15T14:50:07.796Z,68.72
2023-04-15T14:52:38.692Z,67.77
2023-04-15T14:55:12.733Z,67.78
2023-04-15T14:57:41.379Z,67.66
2023-04-15T15:00:09.937Z,68.30
2023-04-15T15:02:39.906Z,68.92
2023-04-15T15:05:08.020Z,70.08
2023-04-15T15:07:36.824Z,70.35
2023-04-15T15:10:03.941Z,68.41
2023-04-15T15:12:32.233Z,68.02
2023-04-15T15:14:58.949Z,68.75
2023-04-15T15:17:26.309Z,68.98
2023-04-15T15:19:52.795Z,70.16
2023-04-15T15:22:21.361Z,70.04
2023-04-15T15:24:48.587Z,70.68
2023-04-15T15:27:15.202Z,71.12
2023-04-15T15:29:41.594Z,70.76
2023-04-15T15:32:08.140Z,70.73
2023-04-15T15:34:34.602Z,71.00
2023-04-15T15:37:01.087Z,70.92
2023-04-15T15:39:27.725Z,72.23
2023-04-15T15:41:54.223Z,72.95
2023-04-15T15:44:20.779Z,73.22
2023-04-15T15:46:47.406Z,73.58
2023-04-15T15:49:13.918Z,73.97
2023-04-15T15:51:40.659Z,74.27
2023-04-15T15:54:07.174Z,73.89
2023-04-15T15:56:35.043Z,73.24
2023-04-15T15:59:01.629Z,73.73
2023-04-15T16:01:28.287Z,74.17
2023-04-15T16:03:54.950Z,73.83
2023-04-15T16:06:21.501Z,74.47
2023-04-15T16:08:47.923Z,74.32
2023-04-15T16:11:14.817Z,74.80
2023-04-15T16:13:41.332Z,75.27
2023-04-15T16:16:07.941Z,75.51
2023-04-15T16:18:35.326Z,75.96
2023-04-15T16:21:02.909Z,75.65
2023-04-15T16:23:29.468Z,75.81
2023-04-15T16:25:56.091Z,76.01
2023-04-15T16:28:28.862Z,75.73
2023-04-15T16:30:56.272Z,75.89
2023-04-15T16:33:23.202Z,76.52
2023-04-15T16:35:50.044Z,75.80
2023-04-15T16:38:16.702Z,77.06
2023-04-15T16:40:43.243Z,76.21
2023-04-15T16:43:11.416Z,76.05
2023-04-15T16:45:38.578Z,76.07
2023-04-15T16:48:05.337Z,76.52
2023-04-15T16:50:31.936Z,76.65
2023-04-15T16:52:58.470Z,76.69
2023-04-15T16:55:25.011Z,76.68
2023-04-15T16:58:02.517Z,76.97
2023-04-15T17:00:36.079Z,77.35
2023-04-15T17:03:03.482Z,77.20
2023-04-15T17:05:33.561Z,77.21
2023-04-15T17:08:00.365Z,77.66
2023-04-15T17:10:27.156Z,77.56
2023-04-15T17:12:56.538Z,76.85
2023-04-15T17:15:23.483Z,77.96
2023-04-15T17:17:51.170Z,77.45
2023-04-15T17:20:17.790Z,77.39
2023-04-15T17:22:45.538Z,77.67
2023-04-15T17:25:13.576Z,77.86
2023-04-15T17:27:40.193Z,77.20
2023-04-15T17:30:09.545Z,77.32
2023-04-15T17:32:36.608Z,77.56
2023-04-15T17:35:06.808Z,78.33
2023-04-15T17:37:34.306Z,78.20
2023-04-15T17:40:00.908Z,78.70
2023-04-15T17:42:27.440Z,79.17
2023-04-15T17:44:53.849Z,79.28
2023-04-15T17:47:20.781Z,79.21
2023-04-15T17:49:47.707Z,78.54
2023-04-15T17:52:14.301Z,78.94
2023-04-15T17:54:40.802Z,78.66
2023-04-15T17:57:07.258Z,79.00
2023-04-15T17:59:34.137Z,79.15
2023-04-15T18:02:00.822Z,79.33
2023-04-15T18:04:28.109Z,79.49
2023-04-15T18:06:54.698Z,80.04
2023-04-15T18:09:21.659Z,79.66
2023-04-15T18:11:48.848Z,79.71
2023-04-15T18:14:30.708Z,79.74
2023-04-15T18:17:00.995Z,79.66
2023-04-15T18:19:27.742Z,79.52
2023-04-15T18:21:54.366Z,79.72
2023-04-15T18:24:22.407Z,79.07
2023-04-15T18:26:49.376Z,78.88
2023-04-15T18:29:15.987Z,78.77
2023-04-15T18:31:42.658Z,78.96
2023-04-15T18:34:09.268Z,78.96
2023-04-15T18:36:35.816Z,79.06
2023-04-15T18:39:02.443Z,80.12
2023-04-15T18:41:29.559Z,80.23
2023-04-15T18:43:56.355Z,80.18
2023-04-15T18:46:23.065Z,80.41
2023-04-15T18:48:49.530Z,81.80
2023-04-15T18:51:16.124Z,82.07
2023-04-15T18:53:42.586Z,81.50
2023-04-15T18:56:09.495Z,82.34
2023-04-15T18:59:08.960Z,81.99
2023-04-15T19:01:22.817Z,82.70
2023-04-15T19:03:50.224Z,83.17
2023-04-15T19:06:17.420Z,83.96
2023-04-15T19:08:43.950Z,83.87
2023-04-15T19:11:11.331Z,84.81
2023-04-15T19:13:37.816Z,84.70
2023-04-15T19:16:04.604Z,85.13
2023-04-15T19:18:31.063Z,84.99
2023-04-15T19:20:58.051Z,85.55
2023-04-15T19:23:24.511Z,85.55
2023-04-15T19:25:50.992Z,85.32
2023-04-15T19:28:17.445Z,85.78
2023-04-15T19:30:43.906Z,85.89
2023-04-15T19:33:10.457Z,86.06
2023-04-15T19:35:38.275Z,86.58
2023-04-15T19:38:04.952Z,86.60
2023-04-15T19:40:31.339Z,86.94
2023-04-15T19:42:57.813Z,88.23
2023-04-15T19:45:24.283Z,87.72
2023-04-15T19:47:51.818Z,87.66
2023-04-15T19:50:21.158Z,88.28
2023-04-15T19:52:47.607Z,88.74
2023-04-15T19:55:14.801Z,88.10
2023-04-15T19:57:41.738Z,88.73
2023-04-15T20:00:09.250Z,89.33
2023-04-15T20:02:36.156Z,89.16
2023-04-15T20:05:02.911Z,89.44
2023-04-15T20:07:29.425Z,88.99
2023-04-15T20:09:55.942Z,88.41
2023-04-15T20:12:50.108Z,88.95
2023-04-15T20:15:09.276Z,88.61
2023-04-15T20:17:36.152Z,88.63
2023-04-15T20:20:04.651Z,87.90
2023-04-15T20:22:32.158Z,88.38
2023-04-15T20:24:58.740Z,88.49
2023-04-15T20:27:25.419Z,88.10
2023-04-15T20:29:52.845Z,88.25
2023-04-15T20:32:19.633Z,88.17
2023-04-15T20:34:46.378Z,88.55
2023-04-15T20:37:13.175Z,89.01
2023-04-15T20:39:41.253Z,88.61
2023-04-15T20:42:10.716Z,88.16
2023-04-15T20:44:40.649Z,88.44
2023-04-15T20:47:07.797Z,89.39
2023-04-15T20:49:36.333Z,89.57
2023-04-15T20:52:05.571Z,89.35
2023-04-15T20:54:42.802Z,89.19
2023-04-15T20:57:25.900Z,89.36
2023-04-15T20:59:55.456Z,89.29
2023-04-15T21:02:42.195Z,89.33
2023-04-15T21:05:29.112Z,89.83
2023-04-15T21:08:00.859Z,89.87
2023-04-15T21:10:35.285Z,90.01
2023-04-15T21:13:07.784Z,90.61
2023-04-15T21:15:41.459Z,91.25
2023-04-15T21:18:17.786Z,90.80
2023-04-15T21:21:04.549Z,91.08
2023-04-15T21:23:39.274Z,90.72
2023-04-15T21:26:10.886Z,91.58
2023-04-15T21:28:40.437Z,92.42
2023-04-15T21:31:08.761Z,92.40
2023-04-15T21:33:41.256Z,92.34
2023-04-15T21:36:07.836Z,92.55
2023-04-15T21:38:37.193Z,92.35
2023-04-15T21:41:09.439Z,93.60
2023-04-15T21:43:37.077Z,93.62
2023-04-15T21:46:23.006Z,93.41
2023-04-15T21:48:54.268Z,93.74
2023-04-15T21:51:23.332Z,94.36
2023-04-15T21:53:52.486Z,94.14
2023-04-15T21:56:21.545Z,94.82
2023-04-15T21:58:50.113Z,94.38
2023-04-15T22:01:17.474Z,95.24
2023-04-15T22:03:44.998Z,95.06
2023-04-15T22:06:13.638Z,95.36
2023-04-15T22:08:57.001Z,95.12
2023-04-15T22:11:46.106Z,95.69
2023-04-15T22:14:20.272Z,95.47
2023-04-15T22:16:54.600Z,95.75
2023-04-15T22:19:31.290Z,96.00
2023-04-15T22:21:59.026Z,96.33
2023-04-15T22:24:35.001Z,96.66
2023-04-15T22:27:06.581Z,97.20
2023-04-15T22:29:39.175Z,97.17
2023-04-15T22:32:07.112Z,97.91
2023-04-15T22:34:35.337Z,97.81
2023-04-15T22:37:08.719Z,97.73
2023-04-15T22:39:39.292Z,97.92
2023-04-15T22:42:07.686Z,98.29
2023-04-15T22:44:40.259Z,98.36
2023-04-15T22:47:07.654Z,99.26
2023-04-15T22:49:36.214Z,98.57
2023-04-15T22:52:48.173Z,98.55
2023-04-15T22:56:02.894Z,98.50
2023-04-15T22:58:34.778Z,99.54
2023-04-15T23:01:09.201Z,99.26
2023-04-15T23:04:06.494Z,99.82
2023-04-15T23:07:32.836Z,99.31
2023-04-15T23:10:04.572Z,99.51
2023-04-15T23:12:31.683Z,100.00
2023-04-15T23:15:04.419Z,100.00
2023-04-15T23:17:36.766Z,100.00
2023-04-15T23:20:13.345Z,100.00
2023-04-15T23:22:41.933Z,100.00
2023-04-15T23:25:11.178Z,100.00
2023-04-15T23:27:42.574Z,100.00
2023-04-15T23:30:14.845Z,100.00
2023-04-15T23:32:43.484Z,100.00
2023-04-15T23:35:12.713Z,100.00
2023-04-15T23:37:40.771Z,100.00
2023-04-15T23:40:08.919Z,100.00
2023-04-15T23:42:43.189Z,100.00
2023-04-15T23:45:13.075Z,100.00
2023-04-15T23:47:41.522Z,100.00
2023-04-15T23:50:10.222Z,100.00
2023-04-15T23:52:37.275Z,100.00
2023-04-15T23:55:06.177Z,100.00
2023-04-15T23:57:40.788Z,100.00
